createdAt,value
2018-09-16T00:00:59.824Z,13.61
2018-09-16T00:03:12.744Z,13.59
2018-09-16T00:04:16.236Z,13.58
2018-09-16T00:05:20.035Z,13.59
2018-09-16T00:06:28.953Z,13.49
2018-09-16T00:07:42.786Z,13.54
2018-09-16T00:08:41.363Z,13.56
2018-09-16T00:09:48.952Z,13.55
2018-09-16T00:10:53.975Z,13.54
2018-09-16T00:12:09.858Z,13.55
2018-09-16T00:12:57.886Z,13.52
2018-09-16T00:14:08.648Z,13.56
2018-09-16T00:16:17.882Z,13.52
2018-09-16T00:17:23.010Z,13.52
2018-09-16T00:20:41.572Z,13.59
2018-09-16T00:24:00.239Z,13.56
2018-09-16T00:25:11.206Z,13.47
2018-09-16T00:27:13.271Z,13.49
2018-09-16T00:28:20.246Z,13.49
2018-09-16T00:29:22.299Z,13.54
2018-09-16T00:30:29.680Z,13.44
2018-09-16T00:31:41.569Z,13.44
2018-09-16T00:32:44.753Z,13.43
2018-09-16T00:34:56.341Z,13.41
2018-09-16T00:36:03.519Z,13.43
2018-09-16T00:36:53.800Z,13.36
2018-09-16T00:38:18.999Z,13.44
2018-09-16T00:39:23.819Z,13.41
2018-09-16T00:40:16.970Z,13.30
2018-09-16T00:41:28.039Z,13.33
2018-09-16T00:44:48.651Z,13.40
2018-09-16T00:45:45.993Z,13.40
2018-09-16T00:46:56.450Z,13.46
2018-09-16T00:48:02.400Z,13.41
2018-09-16T00:49:03.944Z,13.51
2018-09-16T00:50:09.790Z,13.43
2018-09-16T00:52:15.342Z,13.41
2018-09-16T00:55:44.861Z,13.33
2018-09-16T00:56:41.693Z,13.38
2018-09-16T00:57:51.328Z,13.33
2018-09-16T00:58:51.646Z,13.40
2018-09-16T01:00:11.315Z,13.33
2018-09-16T01:02:10.615Z,13.29
2018-09-16T01:03:14.007Z,13.33
2018-09-16T01:04:24.358Z,13.24
2018-09-16T01:05:25.183Z,13.29
2018-09-16T01:08:45.590Z,13.29
2018-09-16T01:09:41.911Z,13.32
2018-09-16T01:10:59.739Z,13.29
2018-09-16T01:11:54.731Z,13.27
2018-09-16T01:13:09.384Z,13.32
2018-09-16T01:15:12.066Z,13.29
2018-09-16T01:16:25.489Z,13.25
2018-09-16T01:17:24.375Z,13.30
2018-09-16T01:19:41.595Z,13.36
2018-09-16T01:21:47.347Z,13.36
2018-09-16T01:23:04.971Z,13.22
2018-09-16T01:23:57.400Z,13.21
2018-09-16T01:25:18.684Z,13.25
2018-09-16T01:26:18.720Z,13.29
2018-09-16T01:28:34.508Z,13.18
2018-09-16T01:29:31.137Z,13.17
2018-09-16T01:30:36.266Z,13.11
2018-09-16T01:31:42.115Z,13.11
2018-09-16T01:32:43.145Z,13.09
2018-09-16T01:33:49.300Z,13.12
2018-09-16T01:34:48.085Z,13.03
2018-09-16T01:36:05.597Z,13.14
2018-09-16T01:37:06.323Z,13.09
2018-09-16T01:38:21.080Z,13.11
2018-09-16T01:40:29.294Z,13.02
2018-09-16T01:42:37.099Z,12.99
2018-09-16T01:43:39.761Z,12.97
2018-09-16T01:44:48.998Z,13.00
2018-09-16T01:45:51.351Z,13.00
2018-09-16T01:47:04.466Z,12.96
2018-09-16T01:48:02.223Z,12.96
2018-09-16T01:49:03.256Z,12.97
2018-09-16T01:50:09.922Z,13.00
2018-09-16T01:51:15.253Z,12.93
2018-09-16T01:52:18.030Z,12.96
2018-09-16T01:53:31.555Z,12.88
2018-09-16T01:54:40.063Z,12.89
2018-09-16T01:55:41.613Z,12.96
2018-09-16T01:58:02.107Z,13.03
2018-09-16T01:59:00.169Z,12.99
2018-09-16T02:00:08.371Z,12.96
2018-09-16T02:01:01.415Z,12.99
2018-09-16T02:02:09.008Z,12.95
2018-09-16T02:03:13.218Z,12.95
2018-09-16T02:05:30.943Z,12.87
2018-09-16T02:06:38.324Z,12.99
2018-09-16T02:07:43.705Z,12.88
2018-09-16T02:08:51.702Z,12.95
2018-09-16T02:09:49.921Z,12.96
2018-09-16T02:12:13.385Z,13.00
2018-09-16T02:13:11.243Z,12.95
2018-09-16T02:14:13.200Z,12.97
2018-09-16T02:16:20.898Z,12.95
2018-09-16T02:17:30.843Z,12.97
2018-09-16T02:18:29.110Z,12.92
2018-09-16T02:19:37.930Z,12.99
2018-09-16T02:20:44.694Z,12.95
2018-09-16T02:21:57.810Z,12.99
2018-09-16T02:22:52.802Z,12.99
2018-09-16T02:24:00.907Z,12.96
2018-09-16T02:27:35.756Z,12.95
2018-09-16T02:29:25.323Z,13.06
2018-09-16T02:30:38.951Z,12.95
2018-09-16T02:31:53.296Z,12.96
2018-09-16T02:32:52.694Z,12.96
2018-09-16T02:33:51.881Z,13.00
2018-09-16T02:34:50.866Z,12.93
2018-09-16T02:36:03.777Z,13.00
2018-09-16T02:37:09.930Z,13.00
2018-09-16T02:38:19.777Z,12.97
2018-09-16T02:39:13.842Z,12.97
2018-09-16T02:40:24.807Z,12.96
2018-09-16T02:41:38.025Z,13.02
2018-09-16T02:42:36.802Z,12.99
2018-09-16T02:43:43.367Z,12.97
2018-09-16T02:44:46.934Z,12.85
2018-09-16T02:45:52.703Z,12.89
2018-09-16T02:47:09.098Z,12.87
2018-09-16T02:49:16.998Z,12.85
2018-09-16T02:50:05.740Z,12.81
2018-09-16T02:51:29.718Z,12.77
2018-09-16T02:52:38.121Z,12.82
2018-09-16T02:53:38.746Z,12.79
2018-09-16T02:55:51.766Z,12.71
2018-09-16T02:56:54.439Z,12.74
2018-09-16T02:57:53.832Z,12.74
2018-09-16T02:58:56.914Z,12.60
2018-09-16T03:00:05.630Z,12.62
2018-09-16T03:01:16.797Z,12.62
2018-09-16T03:02:27.559Z,12.57
2018-09-16T03:03:21.426Z,12.59
2018-09-16T03:04:25.648Z,12.60
2018-09-16T03:05:32.405Z,12.63
2018-09-16T03:06:35.479Z,12.64
2018-09-16T03:07:34.974Z,12.62
2018-09-16T03:08:44.711Z,12.60
2018-09-16T03:09:54.346Z,12.64
2018-09-16T03:11:08.692Z,12.57
2018-09-16T03:12:14.334Z,12.56
2018-09-16T03:13:22.230Z,12.59
2018-09-16T03:14:17.838Z,12.63
2018-09-16T03:15:29.616Z,12.56
2018-09-16T03:16:32.493Z,12.64
2018-09-16T03:17:30.253Z,12.56
2018-09-16T03:18:44.527Z,12.51
2018-09-16T03:19:53.514Z,12.63
2018-09-16T03:20:45.333Z,12.64
2018-09-16T03:21:59.166Z,12.57
2018-09-16T03:23:06.341Z,12.60
2018-09-16T03:25:18.241Z,12.49
2018-09-16T03:27:27.985Z,12.56
2018-09-16T03:28:33.829Z,12.48
2018-09-16T03:29:42.133Z,12.38
2018-09-16T03:31:57.412Z,12.38
2018-09-16T03:33:09.402Z,12.52
2018-09-16T03:34:15.146Z,12.45
2018-09-16T03:34:57.745Z,12.38
2018-09-16T03:36:15.475Z,12.38
2018-09-16T03:37:13.022Z,12.42
2018-09-16T03:38:19.994Z,12.39
2018-09-16T03:39:29.016Z,12.48
2018-09-16T03:40:21.754Z,12.39
2018-09-16T03:41:57.296Z,12.37
2018-09-16T03:42:54.846Z,12.38
2018-09-16T03:43:55.988Z,12.42
2018-09-16T03:46:17.095Z,12.38
2018-09-16T03:47:05.022Z,12.29
2018-09-16T03:48:07.181Z,12.38
2018-09-16T03:49:23.883Z,12.30
2018-09-16T03:51:24.001Z,12.26
2018-09-16T03:52:41.010Z,12.30
2018-09-16T03:53:38.763Z,12.27
2018-09-16T03:55:41.925Z,12.27
2018-09-16T03:56:57.835Z,12.31
2018-09-16T03:58:08.083Z,12.27
2018-09-16T03:59:32.057Z,12.34
2018-09-16T04:00:40.668Z,12.34
2018-09-16T04:01:53.682Z,12.26
2018-09-16T04:02:26.761Z,12.23
2018-09-16T04:04:09.788Z,12.27
2018-09-16T04:04:40.500Z,12.27
2018-09-16T04:06:08.670Z,12.30
2018-09-16T04:06:43.897Z,12.23
2018-09-16T04:08:14.014Z,12.24
2018-09-16T04:09:27.027Z,12.16
2018-09-16T04:12:18.055Z,12.20
2018-09-16T04:13:11.700Z,12.30
2018-09-16T04:14:39.663Z,12.30
2018-09-16T04:15:51.862Z,12.33
2018-09-16T04:16:47.675Z,12.24
2018-09-16T04:17:58.330Z,12.26
2018-09-16T04:18:52.604Z,12.30
2018-09-16T04:20:21.593Z,12.23
2018-09-16T04:20:55.526Z,12.34
2018-09-16T04:22:46.188Z,12.26
2018-09-16T04:23:41.689Z,12.21
2018-09-16T04:24:28.487Z,12.24
2018-09-16T04:25:22.941Z,12.21
2018-09-16T04:26:35.163Z,12.24
2018-09-16T04:27:38.246Z,12.26
2018-09-16T04:29:12.248Z,12.26
2018-09-16T04:29:54.440Z,12.21
2018-09-16T04:30:54.242Z,12.27
2018-09-16T04:31:57.226Z,12.23
2018-09-16T04:33:15.363Z,12.21
2018-09-16T04:35:16.397Z,12.34
2018-09-16T04:36:19.375Z,12.21
2018-09-16T04:37:41.195Z,12.29
2018-09-16T04:39:42.440Z,12.20
2018-09-16T04:43:03.366Z,12.16
2018-09-16T04:43:50.470Z,12.19
2018-09-16T04:45:15.464Z,12.20
2018-09-16T04:46:10.050Z,12.08
2018-09-16T04:47:09.238Z,12.13
2018-09-16T04:48:28.702Z,12.13
2018-09-16T04:49:41.141Z,12.20
2018-09-16T04:52:50.147Z,12.15
2018-09-16T04:54:01.826Z,12.15
2018-09-16T04:54:47.500Z,12.19
2018-09-16T04:57:26.268Z,12.15
2018-09-16T04:58:30.129Z,12.13
2018-09-16T04:59:24.608Z,12.08
2018-09-16T05:00:41.827Z,12.15
2018-09-16T05:01:38.145Z,12.04
2018-09-16T05:03:56.800Z,12.15
2018-09-16T05:04:51.995Z,12.12
2018-09-16T05:05:42.274Z,12.12
2018-09-16T05:06:56.823Z,12.19
2018-09-16T05:09:11.074Z,12.13
2018-09-16T05:10:15.285Z,12.12
2018-09-16T05:12:31.072Z,12.09
2018-09-16T05:13:28.315Z,12.13
2018-09-16T05:15:46.049Z,12.12
2018-09-16T05:16:44.932Z,12.06
2018-09-16T05:17:46.475Z,12.06
2018-09-16T05:18:50.888Z,12.09
2018-09-16T05:19:54.585Z,12.04
2018-09-16T05:21:15.895Z,12.08
2018-09-16T05:22:16.322Z,12.04
2018-09-16T05:23:11.103Z,12.01
2018-09-16T05:24:23.297Z,12.05
2018-09-16T05:26:38.776Z,12.09
2018-09-16T05:27:44.620Z,12.05
2018-09-16T05:28:54.461Z,12.08
2018-09-16T05:29:53.856Z,12.05
2018-09-16T05:31:02.466Z,11.99
2018-09-16T05:31:59.710Z,12.09
2018-09-16T05:33:06.476Z,12.02
2018-09-16T05:34:20.003Z,12.09
2018-09-16T05:37:40.920Z,12.20
2018-09-16T05:38:31.917Z,12.15
2018-09-16T05:39:53.634Z,12.20
2018-09-16T05:42:56.325Z,12.23
2018-09-16T05:43:57.358Z,12.19
2018-09-16T05:46:21.439Z,12.26
2018-09-16T05:47:21.550Z,12.23
2018-09-16T05:48:33.847Z,12.30
2018-09-16T05:49:31.305Z,12.23
2018-09-16T05:50:36.637Z,12.29
2018-09-16T05:52:38.566Z,12.31
2018-09-16T05:53:48.942Z,12.26
2018-09-16T05:54:56.426Z,12.31
2018-09-16T05:55:58.277Z,12.41
2018-09-16T05:57:05.353Z,12.37
2018-09-16T05:59:16.232Z,12.44
2018-09-16T06:01:36.518Z,12.56
2018-09-16T06:02:42.364Z,12.49
2018-09-16T06:03:52.203Z,12.59
2018-09-16T06:05:14.026Z,12.60
2018-09-16T06:05:48.637Z,12.59
2018-09-16T06:07:02.574Z,12.69
2018-09-16T06:08:21.125Z,12.62
2018-09-16T06:09:54.203Z,12.77
2018-09-16T06:11:11.213Z,12.67
2018-09-16T06:11:55.964Z,12.77
2018-09-16T06:12:45.116Z,12.75
2018-09-16T06:14:09.092Z,12.79
2018-09-16T06:15:37.255Z,12.79
2018-09-16T06:16:32.041Z,12.79
2018-09-16T06:17:33.499Z,12.84
2018-09-16T06:19:56.956Z,12.87
2018-09-16T06:21:35.157Z,12.95
2018-09-16T06:22:40.965Z,12.96
2018-09-16T06:23:50.227Z,13.03
2018-09-16T06:24:52.182Z,13.03
2018-09-16T06:26:03.763Z,13.06
2018-09-16T06:27:03.874Z,13.18
2018-09-16T06:28:06.750Z,13.14
2018-09-16T06:29:08.912Z,13.21
2018-09-16T06:30:14.039Z,13.22
2018-09-16T06:31:31.464Z,13.33
2018-09-16T06:33:29.946Z,13.37
2018-09-16T06:35:46.137Z,13.37
2018-09-16T06:36:47.890Z,13.44
2018-09-16T06:37:57.112Z,13.52
2018-09-16T06:38:55.177Z,13.54
2018-09-16T06:40:06.245Z,13.62
2018-09-16T06:41:04.206Z,13.59
2018-09-16T06:42:23.876Z,13.63
2018-09-16T06:43:30.642Z,13.74
2018-09-16T06:44:27.886Z,13.81
2018-09-16T06:45:44.690Z,13.81
2018-09-16T06:46:39.067Z,13.84
2018-09-16T06:47:54.332Z,13.83
2018-09-16T06:48:54.136Z,13.95
2018-09-16T06:50:02.852Z,13.95
2018-09-16T06:51:10.744Z,14.02
2018-09-16T06:52:10.036Z,14.12
2018-09-16T06:53:09.091Z,14.17
2018-09-16T06:54:32.813Z,14.12
2018-09-16T06:55:20.816Z,14.20
2018-09-16T06:56:26.771Z,14.20
2018-09-16T06:57:40.091Z,14.28
2018-09-16T06:59:06.924Z,14.42
2018-09-16T06:59:44.816Z,14.42
2018-09-16T07:00:53.267Z,14.44
2018-09-16T07:01:55.894Z,14.53
2018-09-16T07:03:05.229Z,14.65
2018-09-16T07:05:05.251Z,14.68
2018-09-16T07:06:16.002Z,14.75
2018-09-16T07:08:40.901Z,14.90
2018-09-16T07:09:36.919Z,14.91
2018-09-16T07:10:50.141Z,14.98
2018-09-16T07:11:39.494Z,15.03
2018-09-16T07:12:55.787Z,15.03
2018-09-16T07:14:10.862Z,15.13
2018-09-16T07:15:04.721Z,15.17
2018-09-16T07:16:13.020Z,15.20
2018-09-16T07:17:25.520Z,15.27
2018-09-16T07:18:34.136Z,15.24
2018-09-16T07:21:43.376Z,15.41
2018-09-16T07:22:43.179Z,15.49
2018-09-16T07:23:51.379Z,15.57
2018-09-16T07:24:45.348Z,15.56
2018-09-16T07:27:13.235Z,15.64
2018-09-16T07:28:15.085Z,15.66
2018-09-16T07:29:42.116Z,15.74
2018-09-16T07:30:38.133Z,15.76
2018-09-16T07:32:00.059Z,15.82
2018-09-16T07:32:51.884Z,15.92
2018-09-16T07:34:11.078Z,15.92
2018-09-16T07:35:02.441Z,15.96
2018-09-16T07:35:48.419Z,15.99
2018-09-16T07:37:21.301Z,16.04
2018-09-16T07:37:56.229Z,16.11
2018-09-16T07:39:49.272Z,16.14
2018-09-16T07:40:24.398Z,16.11
2018-09-16T07:42:00.249Z,16.18
2018-09-16T07:43:28.425Z,16.26
2018-09-16T07:44:59.767Z,16.33
2018-09-16T07:45:41.032Z,16.26
2018-09-16T07:46:41.448Z,16.37
2018-09-16T07:47:44.736Z,16.37
2018-09-16T07:49:13.521Z,16.49
2018-09-16T07:50:11.484Z,16.42
2018-09-16T07:51:17.640Z,16.59
2018-09-16T07:52:32.605Z,16.50
2018-09-16T07:53:43.151Z,16.63
2018-09-16T07:54:41.624Z,16.67
2018-09-16T07:56:47.798Z,16.65
2018-09-16T07:57:45.441Z,16.85
2018-09-16T07:58:42.788Z,16.86
2018-09-16T07:59:44.743Z,16.92
2018-09-16T08:00:47.964Z,16.95
2018-09-16T08:02:01.859Z,16.92
2018-09-16T08:03:07.809Z,16.99
2018-09-16T08:04:19.804Z,17.10
2018-09-16T08:05:19.297Z,17.07
2018-09-16T08:06:36.918Z,17.11
2018-09-16T08:07:26.994Z,17.23
2018-09-16T08:08:37.963Z,17.28
2018-09-16T08:09:37.967Z,17.40
2018-09-16T08:10:42.379Z,17.38
2018-09-16T08:12:01.233Z,17.48
2018-09-16T08:12:52.537Z,17.53
2018-09-16T08:14:00.943Z,17.63
2018-09-16T08:15:04.230Z,17.66
2018-09-16T08:16:20.009Z,17.69
2018-09-16T08:18:23.204Z,17.79
2018-09-16T08:19:24.959Z,17.89
2018-09-16T08:21:40.436Z,17.84
2018-09-16T08:22:48.843Z,17.99
2018-09-16T08:23:58.576Z,18.02
2018-09-16T08:24:58.380Z,18.04
2018-09-16T08:25:59.515Z,18.15
2018-09-16T08:28:18.124Z,18.28
2018-09-16T08:29:18.999Z,18.22
2018-09-16T08:30:36.214Z,18.31
2018-09-16T08:31:33.047Z,18.37
2018-09-16T08:32:36.030Z,18.40
2018-09-16T08:33:37.166Z,18.46
2018-09-16T08:35:01.238Z,18.54
2018-09-16T08:35:57.149Z,18.54
2018-09-16T08:37:09.243Z,18.65
2018-09-16T08:39:05.884Z,18.76
2018-09-16T08:40:19.823Z,18.83
2018-09-16T08:41:31.400Z,18.97
2018-09-16T08:42:25.981Z,18.94
2018-09-16T08:44:48.424Z,19.14
2018-09-16T08:45:53.555Z,19.15
2018-09-16T08:46:46.189Z,19.13
2018-09-16T08:47:54.185Z,19.20
2018-09-16T08:50:06.390Z,19.35
2018-09-16T08:51:20.123Z,19.38
2018-09-16T08:52:17.617Z,19.47
2018-09-16T08:55:31.118Z,19.58
2018-09-16T08:56:36.555Z,19.63
2018-09-16T09:00:14.376Z,19.80
2018-09-16T09:01:05.568Z,19.87
2018-09-16T09:02:05.987Z,19.91
2018-09-16T09:03:08.249Z,20.02
2018-09-16T09:04:23.574Z,20.12
2018-09-16T09:05:35.315Z,20.18
2018-09-16T09:06:34.187Z,20.21
2018-09-16T09:07:44.030Z,20.21
2018-09-16T09:08:47.819Z,20.34
2018-09-16T09:10:49.577Z,20.38
2018-09-16T09:12:10.681Z,20.51
2018-09-16T09:13:26.974Z,20.54
2018-09-16T09:14:17.777Z,20.61
2018-09-16T09:15:43.591Z,20.62
2018-09-16T09:17:05.506Z,20.79
2018-09-16T09:18:13.097Z,20.80
2018-09-16T09:20:18.028Z,20.86
2018-09-16T09:20:51.206Z,21.02
2018-09-16T09:22:01.148Z,21.09
2018-09-16T09:23:04.024Z,21.06
2018-09-16T09:24:08.846Z,21.13
2018-09-16T09:25:15.308Z,21.27
2018-09-16T09:26:23.714Z,21.24
2018-09-16T09:27:21.676Z,21.34
2018-09-16T09:28:30.186Z,21.39
2018-09-16T09:29:44.840Z,21.30
2018-09-16T09:30:35.320Z,21.30
2018-09-16T09:31:52.330Z,21.48
2018-09-16T09:32:59.098Z,21.50
2018-09-16T09:33:59.721Z,21.54
2018-09-16T09:36:13.784Z,21.60
2018-09-16T09:37:19.829Z,21.61
2018-09-16T09:40:23.125Z,21.82
2018-09-16T09:41:50.989Z,21.92
2018-09-16T09:42:41.703Z,21.94
2018-09-16T09:43:37.184Z,21.94
2018-09-16T09:45:50.818Z,22.14
2018-09-16T09:47:03.009Z,22.07
2018-09-16T09:49:11.935Z,22.13
2018-09-16T09:51:30.187Z,22.19
2018-09-16T09:52:31.011Z,22.25
2018-09-16T09:55:55.314Z,22.28
2018-09-16T09:56:53.882Z,22.32
2018-09-16T09:57:54.710Z,22.34
2018-09-16T09:59:08.524Z,22.43
2018-09-16T10:00:08.449Z,22.50
2018-09-16T10:02:19.015Z,22.49
2018-09-16T10:03:24.348Z,22.53
2018-09-16T10:04:31.523Z,22.41
2018-09-16T10:05:38.188Z,22.53
2018-09-16T10:06:42.702Z,22.47
2018-09-16T10:07:48.239Z,22.54
2018-09-16T10:08:50.203Z,22.62
2018-09-16T10:10:06.898Z,22.59
2018-09-16T10:11:13.560Z,22.59
2018-09-16T10:12:10.086Z,22.72
2018-09-16T10:13:14.395Z,22.67
2018-09-16T10:14:26.084Z,22.71
2018-09-16T10:15:27.110Z,22.78
2018-09-16T10:16:27.425Z,22.75
2018-09-16T10:17:41.361Z,22.83
2018-09-16T10:18:46.287Z,22.90
2018-09-16T10:21:02.486Z,22.93
2018-09-16T10:22:02.391Z,22.99
2018-09-16T10:23:02.297Z,23.12
2018-09-16T10:25:08.974Z,23.20
2018-09-16T10:26:19.737Z,23.24
2018-09-16T10:27:20.872Z,23.23
2018-09-16T10:28:40.532Z,23.24
2018-09-16T10:29:40.039Z,23.35
2018-09-16T10:30:45.271Z,23.43
2018-09-16T10:31:45.801Z,23.49
2018-09-16T10:33:59.943Z,23.50
2018-09-16T10:34:59.246Z,23.53
2018-09-16T10:36:22.294Z,23.60
2018-09-16T10:38:19.471Z,23.55
2018-09-16T10:39:35.013Z,23.49
2018-09-16T10:40:36.762Z,23.60
2018-09-16T10:42:56.850Z,23.68
2018-09-16T10:43:47.649Z,23.77
2018-09-16T10:45:01.993Z,23.85
2018-09-16T10:46:07.638Z,23.97
2018-09-16T10:48:17.412Z,23.94
2018-09-16T10:49:28.447Z,24.02
2018-09-16T10:51:37.578Z,24.07
2018-09-16T10:53:40.783Z,24.19
2018-09-16T10:58:16.037Z,24.34
2018-09-16T10:59:05.398Z,24.37
2018-09-16T11:01:34.801Z,24.44
2018-09-16T11:02:37.369Z,24.47
2018-09-16T11:03:42.091Z,24.45
2018-09-16T11:04:45.786Z,24.54
2018-09-16T11:05:41.706Z,24.49
2018-09-16T11:06:59.016Z,24.56
2018-09-16T11:09:06.436Z,24.59
2018-09-16T11:10:17.267Z,24.61
2018-09-16T11:12:21.896Z,24.71
2018-09-16T11:13:42.482Z,24.82
2018-09-16T11:14:29.791Z,24.79
2018-09-16T11:16:41.593Z,24.87
2018-09-16T11:18:13.240Z,24.87
2018-09-16T11:18:58.094Z,24.83
2018-09-16T11:19:51.344Z,24.94
2018-09-16T11:21:25.660Z,24.90
2018-09-16T11:22:15.307Z,24.95
2018-09-16T11:23:23.115Z,25.01
2018-09-16T11:24:19.952Z,24.87
2018-09-16T11:25:34.506Z,24.83
2018-09-16T11:27:03.083Z,24.94
2018-09-16T11:27:56.125Z,25.01
2018-09-16T11:29:05.247Z,24.97
2018-09-16T11:30:29.423Z,25.12
2018-09-16T11:32:51.761Z,25.09
2018-09-16T11:33:46.545Z,25.13
2018-09-16T11:34:29.665Z,25.13
2018-09-16T11:35:41.650Z,25.13
2018-09-16T11:36:50.815Z,25.12
2018-09-16T11:38:10.543Z,25.10
2018-09-16T11:38:43.517Z,25.12
2018-09-16T11:40:05.138Z,25.16
2018-09-16T11:41:00.945Z,25.17
2018-09-16T11:42:13.651Z,25.25
2018-09-16T11:44:47.466Z,25.22
2018-09-16T11:45:26.481Z,25.24
2018-09-16T11:46:53.956Z,25.27
2018-09-16T11:47:53.835Z,25.34
2018-09-16T11:49:01.742Z,25.30
2018-09-16T11:50:09.006Z,25.52
2018-09-16T11:51:12.192Z,25.34
2018-09-16T11:52:07.181Z,25.43
2018-09-16T11:55:19.291Z,25.34
2018-09-16T11:56:36.401Z,25.43
2018-09-16T11:57:19.412Z,25.43
2018-09-16T11:59:47.799Z,25.32
2018-09-16T12:00:43.916Z,25.34
2018-09-16T12:03:00.115Z,25.47
2018-09-16T12:04:10.055Z,25.49
2018-09-16T12:05:17.140Z,25.54
2018-09-16T12:08:44.400Z,25.68
2018-09-16T12:09:30.683Z,25.72
2018-09-16T12:10:26.702Z,25.74
2018-09-16T12:11:43.300Z,25.75
2018-09-16T12:12:33.886Z,25.72
2018-09-16T12:16:03.052Z,25.84
2018-09-16T12:17:06.189Z,25.84
2018-09-16T12:18:02.400Z,25.71
2018-09-16T12:19:11.523Z,25.72
2018-09-16T12:20:17.573Z,25.68
2018-09-16T12:21:29.669Z,25.75
2018-09-16T12:22:29.674Z,25.83
2018-09-16T12:23:42.796Z,25.84
2018-09-16T12:24:31.842Z,25.83
2018-09-16T12:25:44.046Z,25.82
2018-09-16T12:26:58.081Z,25.86
2018-09-16T12:28:01.161Z,25.83
2018-09-16T12:29:01.265Z,25.77
2018-09-16T12:29:58.515Z,25.74
2018-09-16T12:31:17.566Z,25.72
2018-09-16T12:32:26.587Z,25.67
2018-09-16T12:34:27.830Z,25.56
2018-09-16T12:35:36.851Z,25.68
2018-09-16T12:36:29.794Z,25.67
2018-09-16T12:37:42.994Z,25.72
2018-09-16T12:38:45.178Z,25.77
2018-09-16T12:39:50.099Z,25.80
2018-09-16T12:41:04.443Z,25.71
2018-09-16T12:42:11.518Z,25.80
2018-09-16T12:43:11.532Z,25.82
2018-09-16T12:44:04.990Z,25.91
2018-09-16T12:46:28.768Z,25.91
2018-09-16T12:47:36.759Z,25.97
2018-09-16T12:48:35.949Z,26.15
2018-09-16T12:49:34.010Z,26.15
2018-09-16T12:50:44.565Z,26.08
2018-09-16T12:51:54.096Z,26.11
2018-09-16T12:52:57.383Z,26.11
2018-09-16T12:55:11.633Z,26.08
2018-09-16T12:56:02.536Z,26.12
2018-09-16T12:58:28.773Z,26.09
2018-09-16T12:59:31.948Z,26.12
2018-09-16T13:00:42.204Z,26.15
2018-09-16T13:01:54.188Z,26.11
2018-09-16T13:02:45.086Z,26.05
2018-09-16T13:04:59.538Z,26.17
2018-09-16T13:06:05.587Z,26.20
2018-09-16T13:07:05.493Z,26.15
2018-09-16T13:08:16.769Z,26.29
2018-09-16T13:09:18.719Z,26.27
2018-09-16T13:10:36.035Z,26.36
2018-09-16T13:12:53.977Z,26.35
2018-09-16T13:13:48.060Z,26.37
2018-09-16T13:14:41.294Z,26.50
2018-09-16T13:15:53.286Z,26.73
2018-09-16T13:16:56.980Z,26.81
2018-09-16T13:18:03.235Z,27.14
2018-09-16T13:19:07.650Z,27.58
2018-09-16T13:20:20.763Z,28.16
2018-09-16T13:21:26.715Z,28.56
2018-09-16T13:22:27.959Z,29.18
2018-09-16T13:26:06.627Z,29.89
2018-09-16T13:27:10.285Z,30.14
2018-09-16T13:28:08.451Z,30.52
2018-09-16T13:29:09.273Z,30.75
2018-09-16T13:30:05.798Z,30.96
2018-09-16T13:31:24.852Z,31.35
2018-09-16T13:32:13.083Z,32.00
2018-09-16T13:34:33.072Z,33.04
2018-09-16T13:35:31.442Z,33.37
2018-09-16T13:36:48.962Z,33.82
2018-09-16T13:37:45.388Z,34.13
2018-09-16T13:38:57.582Z,34.26
2018-09-16T13:39:59.638Z,34.46
2018-09-16T13:41:12.039Z,34.32
2018-09-16T13:42:11.853Z,34.22
2018-09-16T13:43:23.939Z,34.00
2018-09-16T13:44:14.428Z,33.98
2018-09-16T13:45:27.236Z,34.08
2018-09-16T13:46:28.976Z,34.05
2018-09-16T13:47:38.506Z,33.97
2018-09-16T13:48:38.111Z,33.73
2018-09-16T13:50:02.289Z,33.37
2018-09-16T13:52:09.267Z,32.58
2018-09-16T13:53:15.114Z,32.27
2018-09-16T13:54:08.770Z,31.84
2018-09-16T13:55:26.189Z,31.36
2018-09-16T13:56:25.889Z,31.15
2018-09-16T13:58:24.371Z,30.43
2018-09-16T13:59:33.927Z,30.11
2018-09-16T14:00:47.941Z,29.81
2018-09-16T14:03:01.496Z,29.29
2018-09-16T14:04:00.052Z,29.11
2018-09-16T14:05:09.584Z,28.91
2018-09-16T14:06:15.229Z,28.59
2018-09-16T14:07:15.444Z,28.47
2018-09-16T14:08:22.005Z,28.32
2018-09-16T14:09:15.663Z,28.13
2018-09-16T14:10:27.040Z,28.10
2018-09-16T14:11:31.862Z,27.84
2018-09-16T14:12:49.690Z,27.73
2018-09-16T14:13:48.674Z,27.61
2018-09-16T14:14:54.017Z,27.42
2018-09-16T14:15:49.306Z,27.33
2018-09-16T14:17:30.895Z,27.20
2018-09-16T14:18:06.528Z,27.06
2018-09-16T14:19:09.404Z,26.89
2018-09-16T14:20:15.352Z,26.83
2018-09-16T14:21:23.451Z,26.74
2018-09-16T14:23:26.953Z,26.65
2018-09-16T14:25:45.403Z,26.49
2018-09-16T14:26:51.661Z,26.39
2018-09-16T14:27:55.661Z,26.36
2018-09-16T14:29:04.068Z,26.28
2018-09-16T14:31:14.124Z,26.25
2018-09-16T14:32:23.353Z,26.12
2018-09-16T14:33:43.323Z,26.09
2018-09-16T14:34:20.087Z,26.04
2018-09-16T14:36:45.196Z,25.99
2018-09-16T14:37:54.324Z,25.94
2018-09-16T14:39:11.737Z,25.97
2018-09-16T14:40:00.889Z,25.94
2018-09-16T14:40:58.850Z,25.90
2018-09-16T14:42:10.226Z,25.84
2018-09-16T14:43:22.223Z,25.84
2018-09-16T14:44:42.703Z,25.72
2018-09-16T14:45:33.394Z,25.75
2018-09-16T14:46:53.474Z,25.71
2018-09-16T14:47:45.702Z,25.64
2018-09-16T14:48:45.927Z,25.57
2018-09-16T14:50:01.591Z,25.62
2018-09-16T14:50:50.846Z,25.62
2018-09-16T14:52:12.052Z,25.56
2018-09-16T14:53:10.324Z,25.43
2018-09-16T14:54:12.272Z,25.43
2018-09-16T14:55:19.859Z,25.34
2018-09-16T14:56:20.582Z,25.28
2018-09-16T14:58:37.704Z,25.32
2018-09-16T14:59:45.085Z,25.20
2018-09-16T15:00:44.376Z,25.24
2018-09-16T15:01:58.935Z,25.19
2018-09-16T15:02:57.095Z,25.10
2018-09-16T15:04:07.240Z,25.06
2018-09-16T15:05:03.974Z,25.02
2018-09-16T15:07:14.344Z,24.97
2018-09-16T15:08:14.039Z,24.82
2018-09-16T15:09:33.707Z,24.91
2018-09-16T15:10:46.935Z,24.71
2018-09-16T15:11:45.506Z,24.73
2018-09-16T15:13:01.180Z,24.69
2018-09-16T15:14:08.159Z,24.61
2018-09-16T15:16:24.252Z,24.56
2018-09-16T15:17:11.255Z,24.63
2018-09-16T15:18:29.488Z,24.59
2018-09-16T15:19:49.332Z,24.63
2018-09-16T15:22:41.199Z,24.63
2018-09-16T15:23:55.455Z,24.57
2018-09-16T15:25:52.083Z,24.57
2018-09-16T15:27:31.590Z,24.53
2018-09-16T15:28:50.368Z,24.49
2018-09-16T15:29:31.125Z,24.50
2018-09-16T15:31:44.865Z,24.54
2018-09-16T15:34:52.887Z,24.47
2018-09-16T15:35:56.576Z,24.50
2018-09-16T15:37:13.687Z,24.50
2018-09-16T15:38:43.702Z,24.42
2018-09-16T15:39:49.752Z,24.41
2018-09-16T15:40:30.308Z,24.38
2018-09-16T15:41:19.865Z,24.41
2018-09-16T15:42:37.729Z,24.39
2018-09-16T15:43:45.487Z,24.42
2018-09-16T15:44:53.996Z,24.37
2018-09-16T15:46:22.986Z,24.35
2018-09-16T15:48:31.091Z,24.34
2018-09-16T15:49:24.960Z,24.32
2018-09-16T15:50:34.385Z,24.29
2018-09-16T15:51:13.307Z,24.29
2018-09-16T15:53:14.241Z,24.27
2018-09-16T15:54:03.494Z,24.26
2018-09-16T15:55:14.176Z,24.24
2018-09-16T15:56:13.762Z,24.26
2018-09-16T15:57:01.884Z,24.20
2018-09-16T15:58:10.392Z,24.16
2018-09-16T16:01:29.366Z,24.13
2018-09-16T16:02:46.068Z,24.16
2018-09-16T16:06:04.527Z,24.12
2018-09-16T16:06:59.415Z,24.04
2018-09-16T16:08:16.425Z,24.02
2018-09-16T16:09:21.553Z,24.01
2018-09-16T16:10:38.999Z,23.98
2018-09-16T16:12:38.168Z,23.97
2018-09-16T16:14:56.417Z,23.94
2018-09-16T16:16:46.611Z,23.89
2018-09-16T16:17:54.598Z,23.85
2018-09-16T16:19:18.774Z,23.85
2018-09-16T16:20:13.558Z,23.77
2018-09-16T16:21:05.621Z,23.82
2018-09-16T16:23:44.104Z,23.70
2018-09-16T16:24:17.282Z,23.77
2018-09-16T16:25:44.324Z,23.70
2018-09-16T16:26:19.041Z,23.64
2018-09-16T16:27:57.579Z,23.58
2018-09-16T16:29:04.218Z,23.67
2018-09-16T16:31:00.344Z,23.57
2018-09-16T16:32:02.909Z,23.57
2018-09-16T16:33:14.292Z,23.57
2018-09-16T16:34:05.390Z,23.50
2018-09-16T16:35:14.102Z,23.47
2018-09-16T16:37:45.132Z,23.50
2018-09-16T16:38:56.625Z,23.42
2018-09-16T16:40:36.881Z,23.38
2018-09-16T16:41:46.715Z,23.38
2018-09-16T16:42:52.265Z,23.42
2018-09-16T16:44:16.227Z,23.29
2018-09-16T16:45:19.719Z,23.29
2018-09-16T16:47:15.028Z,23.29
2018-09-16T16:48:40.533Z,23.19
2018-09-16T16:49:32.143Z,23.26
2018-09-16T16:50:39.741Z,23.23
2018-09-16T16:51:41.277Z,23.27
2018-09-16T16:53:01.360Z,23.19
2018-09-16T16:53:59.318Z,23.23